Flight Briefing for GRZ521

Departure Arrival
Adak Airport (PADK)
Click to view FAA NOTAMS
Ted Stevens Anchorage International Airport (PANC)
Click to view FAA NOTAMS
Departure Time Arrival Time
N/A N/A
Aircraft Distance
B727-200F 1036nm
Departure METAR Arrival METAR
PADK 200856Z AUTO 01018KT 10SM FEW034 OVC060 01/M03 A2969 RMK AO2 PK WND 36028/0846 SLP054 60000 T00061033 58006 FZRANO PANC 200853Z 01010G19KT 10SM SCT060 BKN070 OVC085 01/M05 A2986 RMK AO2 SLP113 T00111050 400440006 56022
Suggested Route
ADK028021 SIYNY G8 AUB STREW V456 TUCKS AMOTT4


View recent IFR Routes data
Notes



Charts and Procedures

Charts for PADK
No chart available
Charts for PANC
No chart available

Windy.com Weather Map